Time;durP1;ratioP1;P1;durP2;ratioP2;P2;SDS_P1;SDS_P2;PMS_P1;PMS_P2;Temp;Humidity;BMP_temperature;BMP_pressure;BME280_temperature;BME280_humidity;BME280_pressure;Samples;Min_cycle;Max_cycle;Signal;HPM_P1;HPM_P2
2022/04/10 00:00:43;;;;;;;9.90;3.00;;;3.50;99.90;;;;;;5004465;28;20041;-80
2022/04/10 00:03:09;;;;;;;10.27;3.05;;;3.50;99.90;;;;;;5004788;28;20114;-80
2022/04/10 00:05:35;;;;;;;14.20;3.38;;;3.50;99.90;;;;;;5003094;28;20137;-80
2022/04/10 00:08:00;;;;;;;13.15;3.33;;;3.50;99.90;;;;;;5004219;28;20136;-80
2022/04/10 00:10:26;;;;;;;14.02;2.88;;;3.50;99.90;;;;;;5008346;28;20060;-81
2022/04/10 00:12:52;;;;;;;13.90;3.70;;;3.50;99.90;;;;;;5005652;28;20045;-80
2022/04/10 00:15:17;;;;;;;16.27;3.25;;;3.50;99.90;;;;;;5002216;28;20046;-80
2022/04/10 00:17:43;;;;;;;11.68;3.13;;;3.50;99.90;;;;;;5004970;28;20604;-81
2022/04/10 00:20:11;;;;;;;20.83;3.70;;;3.50;99.90;;;;;;5005087;28;20034;-80
2022/04/10 00:22:44;;;;;;;15.27;3.10;;;3.50;99.90;;;;;;5004995;28;20049;-80
2022/04/10 00:25:12;;;;;;;13.55;2.95;;;3.50;99.90;;;;;;5004617;28;20728;-80
2022/04/10 00:27:40;;;;;;;9.73;2.85;;;3.50;99.90;;;;;;5004034;28;20054;-80
2022/04/10 00:30:07;;;;;;;9.35;2.60;;;3.50;99.90;;;;;;5004323;28;20050;-80
2022/04/10 00:32:32;;;;;;;17.75;2.80;;;3.50;99.90;;;;;;5003993;28;20090;-80
2022/04/10 00:34:58;;;;;;;13.43;3.25;;;3.50;99.90;;;;;;5003694;28;20450;-81
2022/04/10 00:37:24;;;;;;;10.85;3.08;;;3.40;99.90;;;;;;5007590;28;20046;-81
2022/04/10 00:39:50;;;;;;;14.45;2.88;;;3.40;99.90;;;;;;5008093;28;20046;-81
2022/04/10 00:42:16;;;;;;;11.77;2.95;;;3.40;99.90;;;;;;5008526;28;20707;-80
2022/04/10 00:44:41;;;;;;;11.18;2.83;;;3.30;99.90;;;;;;5005015;28;20500;-80
2022/04/10 00:47:10;;;;;;;9.38;3.05;;;3.30;99.90;;;;;;5004752;28;20045;-80
2022/04/10 00:49:39;;;;;;;11.88;3.00;;;3.30;99.90;;;;;;5002815;28;20045;-81
2022/04/10 00:52:08;;;;;;;10.13;3.08;;;3.30;99.90;;;;;;5006353;28;20049;-80
2022/04/10 00:54:35;;;;;;;12.90;3.63;;;3.20;99.90;;;;;;5004744;28;20469;-80
2022/04/10 00:57:02;;;;;;;13.00;3.30;;;3.20;99.90;;;;;;5004479;28;20045;-80
2022/04/10 00:59:28;;;;;;;11.73;3.25;;;3.20;99.90;;;;;;5005121;28;20138;-80
2022/04/10 01:01:55;;;;;;;15.70;3.60;;;3.20;99.90;;;;;;5004099;28;20045;-80
2022/04/10 01:04:20;;;;;;;14.57;4.22;;;3.20;99.90;;;;;;5004049;28;20042;-80
2022/04/10 01:06:48;;;;;;;14.23;3.53;;;3.10;99.90;;;;;;5002717;28;20477;-80
2022/04/10 01:09:14;;;;;;;13.80;3.10;;;3.10;99.90;;;;;;5006810;28;20388;-80
2022/04/10 01:11:40;;;;;;;14.07;3.85;;;3.10;99.90;;;;;;5003206;28;20042;-80
2022/04/10 01:14:06;;;;;;;15.00;3.88;;;3.10;99.90;;;;;;5001669;28;20558;-80
2022/04/10 01:16:33;;;;;;;14.45;3.53;;;3.10;99.90;;;;;;5004024;28;20091;-80
2022/04/10 01:19:03;;;;;;;15.55;3.63;;;3.10;99.90;;;;;;5004611;28;20042;-80
2022/04/10 01:21:31;;;;;;;13.52;3.47;;;3.10;99.90;;;;;;5003384;28;20471;-80
2022/04/10 01:23:57;;;;;;;13.57;3.38;;;3.10;99.90;;;;;;5005463;28;20102;-80
2022/04/10 01:26:24;;;;;;;15.45;4.10;;;3.00;99.90;;;;;;5106887;28;20457;-80
2022/04/10 01:29:03;;;;;;;19.63;4.85;;;3.00;99.90;;;;;;4999988;28;20100;-80
2022/04/10 01:31:31;;;;;;;16.25;4.18;;;3.10;99.90;;;;;;5003896;28;20046;-80
2022/04/10 01:33:59;;;;;;;16.17;4.22;;;3.00;99.90;;;;;;4995997;28;20073;-80
2022/04/10 01:36:27;;;;;;;11.38;3.45;;;3.10;99.90;;;;;;4999639;28;20176;-80
2022/04/10 01:38:54;;;;;;;15.73;5.05;;;3.10;99.90;;;;;;4997779;28;20045;-80
2022/04/10 01:41:26;;;;;;;13.25;3.65;;;3.10;99.90;;;;;;5000391;28;20440;-80
2022/04/10 01:43:55;;;;;;;16.30;4.10;;;3.10;99.90;;;;;;4999752;28;20053;-80
2022/04/10 01:46:23;;;;;;;13.32;3.25;;;3.10;99.90;;;;;;5001825;28;20038;-80
2022/04/10 01:48:49;;;;;;;13.93;3.78;;;3.10;99.90;;;;;;5002900;28;20064;-80
2022/04/10 01:51:15;;;;;;;12.95;3.58;;;3.10;99.90;;;;;;5002766;28;20046;-80
2022/04/10 01:53:41;;;;;;;15.00;3.53;;;3.10;99.90;;;;;;5000617;28;20050;-80
2022/04/10 01:56:08;;;;;;;11.82;3.30;;;3.10;99.90;;;;;;5003945;28;20049;-80
2022/04/10 01:58:45;;;;;;;12.25;3.10;;;3.10;99.90;;;;;;5003981;28;20042;-80
2022/04/10 02:01:12;;;;;;;11.98;3.50;;;3.10;99.90;;;;;;5000976;28;20507;-80
2022/04/10 02:03:39;;;;;;;9.80;3.33;;;3.00;99.90;;;;;;5003175;28;20038;-80
2022/04/10 02:06:06;;;;;;;12.30;3.80;;;3.00;99.90;;;;;;5002959;28;20048;-80
2022/04/10 02:08:33;;;;;;;14.85;3.28;;;3.00;99.90;;;;;;5002242;28;20030;-81
2022/04/10 02:10:59;;;;;;;17.20;3.38;;;3.00;99.90;;;;;;5003622;28;20045;-80
2022/04/10 02:13:25;;;;;;;18.08;3.55;;;3.00;99.90;;;;;;5005733;28;20056;-80
2022/04/10 02:15:51;;;;;;;28.00;4.13;;;3.00;99.90;;;;;;5007169;28;20049;-80
2022/04/10 02:18:17;;;;;;;13.85;3.80;;;3.00;99.90;;;;;;5005890;28;20046;-80
2022/04/10 02:20:43;;;;;;;13.85;3.72;;;3.00;99.90;;;;;;5006561;28;20048;-80
2022/04/10 02:23:11;;;;;;;14.90;3.95;;;3.00;99.90;;;;;;5005909;28;20050;-80
2022/04/10 02:25:37;;;;;;;14.13;4.22;;;3.00;99.90;;;;;;5006825;28;20034;-80
2022/04/10 02:28:02;;;;;;;17.90;4.18;;;3.00;99.90;;;;;;5007326;28;20454;-80
2022/04/10 02:30:28;;;;;;;13.75;3.50;;;3.00;99.90;;;;;;5005309;28;20096;-80
2022/04/10 02:32:54;;;;;;;11.25;2.95;;;2.90;99.90;;;;;;5007966;28;20054;-80
2022/04/10 02:35:19;;;;;;;16.77;3.67;;;2.90;99.90;;;;;;5003969;28;20520;-80
2022/04/10 02:37:45;;;;;;;16.60;3.83;;;2.90;99.90;;;;;;5005204;28;20050;-80
2022/04/10 02:40:16;;;;;;;13.52;3.80;;;2.90;99.90;;;;;;5006492;28;20542;-80
2022/04/10 02:42:42;;;;;;;15.35;3.60;;;2.90;99.90;;;;;;5007572;28;20072;-80
2022/04/10 02:45:08;;;;;;;14.80;3.83;;;2.90;99.90;;;;;;5003571;28;20513;-80
2022/04/10 02:47:34;;;;;;;16.10;3.42;;;2.90;99.90;;;;;;5006931;28;20048;-80
2022/04/10 02:50:00;;;;;;;14.95;3.67;;;2.90;99.90;;;;;;5007511;28;20050;-80
2022/04/10 02:52:26;;;;;;;15.38;4.00;;;2.90;99.90;;;;;;5004942;28;20054;-80
2022/04/10 02:54:52;;;;;;;13.05;3.25;;;2.90;99.90;;;;;;5007189;28;20042;-80
2022/04/10 02:57:17;;;;;;;19.83;3.97;;;2.90;99.90;;;;;;5006563;28;20056;-80
2022/04/10 02:59:43;;;;;;;13.40;3.63;;;2.90;99.90;;;;;;5002564;28;20054;-80
2022/04/10 03:02:09;;;;;;;18.02;4.15;;;2.80;99.90;;;;;;5005199;28;20049;-80
2022/04/10 03:04:34;;;;;;;13.75;3.40;;;2.90;99.90;;;;;;4995542;28;20046;-80
2022/04/10 03:07:03;;;;;;;16.83;4.15;;;2.80;99.90;;;;;;5004346;28;20050;-81
2022/04/10 03:09:29;;;;;;;15.52;3.58;;;2.80;99.90;;;;;;5002537;28;20114;-81
2022/04/10 03:11:55;;;;;;;9.77;3.33;;;2.80;99.90;;;;;;5004146;28;20030;-81
2022/04/10 03:14:20;;;;;;;17.60;3.85;;;2.80;99.90;;;;;;5006810;28;20041;-81
2022/04/10 03:16:46;;;;;;;18.58;4.13;;;2.80;99.90;;;;;;5007490;28;20552;-81
2022/04/10 03:19:11;;;;;;;20.15;3.75;;;2.80;99.90;;;;;;5003619;28;20073;-81
2022/04/10 03:21:37;;;;;;;17.08;4.47;;;2.80;99.90;;;;;;5006104;28;20050;-81
2022/04/10 03:24:03;;;;;;;16.05;3.92;;;2.80;99.90;;;;;;5004807;28;20061;-81
2022/04/10 03:26:29;;;;;;;14.70;3.75;;;2.90;99.90;;;;;;5004157;28;20038;-81
2022/04/10 03:28:55;;;;;;;19.27;3.40;;;2.90;99.90;;;;;;5004338;28;20490;-81
2022/04/10 03:31:22;;;;;;;17.95;4.00;;;2.90;99.90;;;;;;5007127;28;20069;-81
2022/04/10 03:33:49;;;;;;;10.25;3.70;;;2.90;99.90;;;;;;5107031;27;20046;-81
2022/04/10 03:36:15;;;;;;;19.45;4.82;;;2.90;99.90;;;;;;5004414;28;20073;-81
2022/04/10 03:38:40;;;;;;;14.02;3.63;;;2.90;99.90;;;;;;5005060;28;20125;-81
2022/04/10 03:41:06;;;;;;;17.10;3.75;;;2.90;99.90;;;;;;5003359;28;20117;-81
2022/04/10 03:43:32;;;;;;;9.48;3.00;;;3.00;99.90;;;;;;5002381;28;20041;-81
2022/04/10 03:45:59;;;;;;;13.30;3.30;;;3.00;99.90;;;;;;5002886;28;20480;-81
2022/04/10 03:48:24;;;;;;;9.93;3.15;;;3.00;99.90;;;;;;5105390;27;20082;-81
2022/04/10 03:50:50;;;;;;;14.48;3.83;;;3.00;99.90;;;;;;5006293;28;20167;-81
2022/04/10 03:53:16;;;;;;;15.02;4.32;;;3.00;99.90;;;;;;5005993;28;20124;-81
2022/04/10 03:55:42;;;;;;;13.77;3.42;;;3.10;99.90;;;;;;5106725;27;20042;-81
2022/04/10 03:58:08;;;;;;;14.38;3.58;;;3.10;99.90;;;;;;5005649;28;20467;-81
2022/04/10 04:00:40;;;;;;;14.80;3.25;;;3.10;99.90;;;;;;5005976;28;20558;-81
2022/04/10 04:03:06;;;;;;;10.82;3.03;;;3.10;99.90;;;;;;5005005;28;20520;-81
2022/04/10 04:05:32;;;;;;;18.27;3.38;;;3.10;99.90;;;;;;5002834;28;20050;-81
2022/04/10 04:07:58;;;;;;;13.68;3.67;;;3.10;99.90;;;;;;5004728;28;20041;-81
2022/04/10 04:10:24;;;;;;;16.85;3.42;;;3.20;99.90;;;;;;5007010;28;20034;-81
2022/04/10 04:12:50;;;;;;;11.48;3.22;;;3.20;99.90;;;;;;5007030;28;20082;-81
2022/04/10 04:15:16;;;;;;;19.55;3.67;;;3.20;99.90;;;;;;5001838;28;20069;-81
2022/04/10 04:17:41;;;;;;;16.70;3.85;;;3.20;99.90;;;;;;5006406;28;20095;-81
2022/04/10 04:20:08;;;;;;;16.23;3.47;;;3.20;99.90;;;;;;5005579;28;20052;-81
2022/04/10 04:22:34;;;;;;;11.25;3.25;;;3.20;99.90;;;;;;5004237;28;20042;-81
2022/04/10 04:25:00;;;;;;;13.48;4.05;;;3.20;99.90;;;;;;5001201;28;20042;-81
2022/04/10 04:27:26;;;;;;;16.13;4.18;;;3.20;99.90;;;;;;5005409;28;20387;-82
2022/04/10 04:29:52;;;;;;;11.00;3.10;;;3.20;99.90;;;;;;5003585;28;20435;-82
2022/04/10 04:32:18;;;;;;;9.15;2.60;;;3.10;99.90;;;;;;4999994;28;20049;-82
2022/04/10 04:34:43;;;;;;;15.38;3.17;;;3.00;99.90;;;;;;5107006;27;20409;-83
2022/04/10 04:37:09;;;;;;;7.70;2.38;;;3.00;99.90;;;;;;5002445;28;20074;-81
2022/04/10 04:39:35;;;;;;;9.15;2.60;;;3.00;99.90;;;;;;5004159;28;20046;-82
2022/04/10 04:42:01;;;;;;;8.32;2.30;;;2.90;99.90;;;;;;5000886;28;20042;-86
2022/04/10 04:44:30;;;;;;;11.27;1.98;;;2.90;99.90;;;;;;5002289;28;20075;-79
2022/04/10 04:46:59;;;;;;;8.25;1.95;;;2.90;99.90;;;;;;5001127;28;20067;-81
2022/04/10 04:49:25;;;;;;;8.23;1.70;;;2.90;99.90;;;;;;5009571;28;20077;-79
2022/04/10 04:51:51;;;;;;;7.60;1.75;;;2.90;99.90;;;;;;5004663;28;20485;-79
2022/04/10 04:54:16;;;;;;;4.50;1.45;;;2.90;99.90;;;;;;4992867;28;20045;-75
2022/04/10 04:56:42;;;;;;;5.25;1.40;;;2.90;99.90;;;;;;5005311;28;20190;-82
2022/04/10 04:59:07;;;;;;;5.05;1.45;;;2.90;99.90;;;;;;5002549;28;20048;-85
2022/04/10 05:01:33;;;;;;;7.20;1.40;;;2.90;99.90;;;;;;5002906;28;20038;-80
2022/04/10 05:03:59;;;;;;;6.30;1.52;;;3.00;99.90;;;;;;5032273;28;20481;-81
2022/04/10 05:06:25;;;;;;;6.60;1.40;;;3.00;99.90;;;;;;5003426;28;20451;-81
2022/04/10 05:09:11;;;;;;;5.32;1.60;;;3.00;99.90;;;;;;5005639;28;20095;-81
2022/04/10 05:11:36;;;;;;;6.05;1.52;;;3.00;99.90;;;;;;4994200;28;20489;-83
2022/04/10 05:14:04;;;;;;;10.45;2.10;;;3.00;99.90;;;;;;5005544;28;20056;-79
2022/04/10 05:16:29;;;;;;;8.70;2.30;;;3.00;99.90;;;;;;5003328;28;20042;-80
2022/04/10 05:18:55;;;;;;;8.40;2.67;;;3.00;99.90;;;;;;5005838;28;20042;-82
2022/04/10 05:21:20;;;;;;;11.60;2.80;;;3.00;99.90;;;;;;5007314;28;20046;-82
2022/04/10 05:23:46;;;;;;;9.60;2.80;;;3.00;99.90;;;;;;5010847;28;20041;-79
2022/04/10 05:26:14;;;;;;;10.00;2.95;;;3.00;99.90;;;;;;5013723;28;20065;-82
2022/04/10 05:28:40;;;;;;;20.15;3.35;;;3.00;99.90;;;;;;5015540;28;20038;-82
2022/04/10 05:31:06;;;;;;;10.35;2.92;;;3.00;99.90;;;;;;5017471;28;20396;-84
2022/04/10 05:33:35;;;;;;;13.07;3.20;;;3.00;99.90;;;;;;5021321;28;20045;-83
2022/04/10 05:36:01;;;;;;;14.15;4.00;;;3.00;99.90;;;;;;5020467;28;20048;-80
2022/04/10 05:38:26;;;;;;;16.85;3.72;;;3.00;99.90;;;;;;5005418;28;20480;-81
2022/04/10 05:40:53;;;;;;;15.73;3.90;;;3.10;99.90;;;;;;5005392;28;20114;-83
2022/04/10 05:43:20;;;;;;;14.20;4.07;;;3.10;99.90;;;;;;5006542;28;20046;-80
2022/04/10 05:45:50;;;;;;;12.73;3.95;;;3.10;99.90;;;;;;5010034;28;20089;-80
2022/04/10 05:48:16;;;;;;;12.75;3.72;;;3.10;99.90;;;;;;4992570;28;20053;-81
2022/04/10 05:50:42;;;;;;;15.25;4.60;;;3.20;99.90;;;;;;5009400;28;20041;-82
2022/04/10 05:53:08;;;;;;;12.27;3.65;;;3.20;99.90;;;;;;5008375;28;20052;-84
2022/04/10 05:55:34;;;;;;;16.20;4.10;;;3.20;99.90;;;;;;5008218;28;20511;-85
2022/04/10 05:58:01;;;;;;;12.25;3.83;;;3.30;99.90;;;;;;5008073;28;20057;-85
2022/04/10 06:00:30;;;;;;;9.88;3.40;;;3.40;99.90;;;;;;5006129;28;20038;-84
2022/04/10 06:02:55;;;;;;;13.32;4.13;;;3.40;99.90;;;;;;5021842;28;20477;-84
2022/04/10 06:05:22;;;;;;;15.93;3.95;;;3.50;99.90;;;;;;5012477;28;20049;-83
2022/04/10 06:07:48;;;;;;;15.20;3.75;;;3.60;99.90;;;;;;5016807;28;20561;-84
2022/04/10 06:10:14;;;;;;;10.40;3.40;;;3.70;99.90;;;;;;5015254;28;20050;-84
2022/04/10 06:12:39;;;;;;;14.70;3.60;;;3.80;99.90;;;;;;5023115;28;20091;-84
2022/04/10 06:15:05;;;;;;;8.02;2.53;;;3.80;99.90;;;;;;5016194;28;20078;-84
2022/04/10 06:17:31;;;;;;;10.40;2.88;;;3.90;99.90;;;;;;5008235;28;20038;-84
2022/04/10 06:19:58;;;;;;;7.65;2.30;;;4.00;99.90;;;;;;5007693;28;20075;-84
2022/04/10 06:22:23;;;;;;;8.68;2.75;;;4.00;99.90;;;;;;5008178;28;20042;-84
2022/04/10 06:24:53;;;;;;;9.55;2.97;;;4.10;99.90;;;;;;5111326;27;20042;-84
2022/04/10 06:27:19;;;;;;;10.77;2.30;;;4.20;99.90;;;;;;5008536;28;20053;-84
2022/04/10 06:29:46;;;;;;;10.18;2.53;;;4.20;99.90;;;;;;5011159;28;20030;-85
2022/04/10 06:32:12;;;;;;;11.55;2.80;;;4.30;99.90;;;;;;5006508;28;20548;-85
2022/04/10 06:34:37;;;;;;;6.47;2.38;;;4.30;99.90;;;;;;5018507;28;20042;-83
2022/04/10 06:37:04;;;;;;;5.47;1.60;;;4.30;99.90;;;;;;5027595;28;20472;-81
2022/04/10 06:39:30;;;;;;;7.32;1.70;;;4.30;99.90;;;;;;5008857;28;20057;-82
2022/04/10 06:41:56;;;;;;;5.43;1.48;;;4.20;99.90;;;;;;5008287;28;20077;-86
2022/04/10 06:44:21;;;;;;;3.92;1.35;;;4.20;99.90;;;;;;5007544;28;20052;-83
2022/04/10 06:46:47;;;;;;;3.28;1.25;;;4.10;99.90;;;;;;5007640;28;20396;-79
2022/04/10 06:49:13;;;;;;;6.45;1.83;;;4.10;99.90;;;;;;5007624;28;20277;-83
2022/04/10 06:51:39;;;;;;;5.13;1.70;;;4.20;99.90;;;;;;5018896;28;20057;-83
2022/04/10 06:54:05;;;;;;;4.63;1.30;;;4.20;99.90;;;;;;5009961;28;20038;-85
2022/04/10 06:56:31;;;;;;;4.28;1.33;;;4.30;99.90;;;;;;5004422;28;20050;-81
2022/04/10 06:58:56;;;;;;;5.72;1.55;;;4.30;99.90;;;;;;5025555;28;20040;-85
2022/04/10 07:01:22;;;;;;;7.05;1.77;;;4.40;99.90;;;;;;5018288;28;20077;-84
2022/04/10 07:03:48;;;;;;;4.00;1.40;;;4.50;99.90;;;;;;5007404;28;20050;-82
2022/04/10 07:06:13;;;;;;;5.45;1.58;;;4.60;99.90;;;;;;5006308;28;20439;-83
2022/04/10 07:08:39;;;;;;;7.35;1.80;;;4.70;99.90;;;;;;5007120;28;20085;-85
2022/04/10 07:11:05;;;;;;;8.13;2.45;;;4.80;99.90;;;;;;5007230;28;20121;-82
2022/04/10 07:13:30;;;;;;;7.07;2.15;;;4.90;99.90;;;;;;5009944;28;20083;-84
2022/04/10 07:15:56;;;;;;;5.35;1.83;;;4.90;99.90;;;;;;5020780;28;20034;-85
2022/04/10 07:18:21;;;;;;;6.75;2.00;;;5.00;99.90;;;;;;5006880;28;20134;-83
2022/04/10 07:20:47;;;;;;;9.52;2.13;;;5.00;99.90;;;;;;5009551;28;20085;-80
2022/04/10 07:25:57;;;;;;;6.68;2.00;;;5.20;99.90;;;;;;4996835;28;20085;-85
2022/04/10 07:28:23;;;;;;;7.60;2.50;;;5.30;99.90;;;;;;5006900;28;20089;-85
2022/04/10 07:30:49;;;;;;;6.70;2.00;;;5.30;99.90;;;;;;5007251;28;20051;-85
2022/04/10 07:33:15;;;;;;;6.55;1.80;;;5.40;99.90;;;;;;5006843;28;20050;-85
2022/04/10 07:35:42;;;;;;;6.28;1.75;;;5.50;99.90;;;;;;5007898;28;20038;-85
2022/04/10 07:38:11;;;;;;;7.80;1.80;;;5.60;99.90;;;;;;5007847;28;20049;-85
2022/04/10 07:40:40;;;;;;;6.80;2.00;;;5.70;99.90;;;;;;5010728;28;20079;-85
2022/04/10 07:43:06;;;;;;;5.35;2.00;;;5.80;99.90;;;;;;5010502;28;20034;-85
2022/04/10 07:48:17;;;;;;;8.63;2.30;;;5.80;99.90;;;;;;5006823;28;20133;-84
2022/04/10 07:50:43;;;;;;;8.18;2.08;;;5.80;99.90;;;;;;5005178;28;20080;-85
2022/04/10 07:53:08;;;;;;;7.93;2.00;;;5.80;99.90;;;;;;5005013;28;20510;-85
2022/04/10 07:55:34;;;;;;;8.70;2.38;;;5.80;99.90;;;;;;5006732;28;20120;-84
2022/04/10 07:58:00;;;;;;;8.63;2.10;;;5.80;99.90;;;;;;5007138;28;20378;-84
2022/04/10 08:00:26;;;;;;;9.38;1.95;;;5.80;99.90;;;;;;5006159;28;20070;-84
2022/04/10 08:02:52;;;;;;;10.60;2.33;;;5.80;99.90;;;;;;5006809;28;20038;-85
2022/04/10 08:05:19;;;;;;;11.57;2.30;;;5.80;99.90;;;;;;5021670;28;20053;-84
2022/04/10 08:07:46;;;;;;;11.05;2.55;;;5.80;99.90;;;;;;5021243;28;20696;-84
2022/04/10 08:10:13;;;;;;;8.10;2.35;;;5.80;99.90;;;;;;4987361;28;20043;-84
2022/04/10 08:12:42;;;;;;;8.13;2.20;;;5.80;99.90;;;;;;4990125;28;20056;-84
2022/04/10 08:15:10;;;;;;;7.82;2.05;;;5.80;99.90;;;;;;5004651;28;20477;-84
2022/04/10 08:17:35;;;;;;;9.48;2.25;;;5.80;99.90;;;;;;5007118;28;20049;-84
2022/04/10 08:20:04;;;;;;;12.18;2.47;;;5.90;99.90;;;;;;5005260;28;20058;-84
2022/04/10 08:22:31;;;;;;;8.30;2.40;;;6.00;99.90;;;;;;5004834;28;20050;-85
2022/04/10 08:25:02;;;;;;;6.28;2.00;;;6.10;99.90;;;;;;5009640;28;20442;-84
2022/04/10 08:27:29;;;;;;;11.07;2.72;;;6.30;99.90;;;;;;5024495;28;20514;-85
2022/04/10 08:29:54;;;;;;;10.65;2.45;;;6.50;99.90;;;;;;5016131;28;20042;-85
2022/04/10 08:32:20;;;;;;;9.63;2.65;;;6.60;99.90;;;;;;5006753;28;20094;-85
2022/04/10 08:34:46;;;;;;;9.15;2.28;;;6.60;99.90;;;;;;5005664;28;20829;-85
2022/04/10 08:37:11;;;;;;;10.07;2.47;;;6.70;99.90;;;;;;5005806;28;20577;-85
2022/04/10 08:39:40;;;;;;;10.82;2.22;;;6.80;99.90;;;;;;5019594;28;20045;-85
2022/04/10 08:42:08;;;;;;;10.35;2.33;;;6.80;99.90;;;;;;5025964;28;20052;-85
2022/04/10 08:44:35;;;;;;;10.30;2.47;;;7.00;99.90;;;;;;5011246;28;20079;-82
2022/04/10 08:47:01;;;;;;;9.25;2.88;;;7.10;99.90;;;;;;5006801;28;20053;-85
2022/04/10 08:49:31;;;;;;;11.90;2.85;;;7.20;99.90;;;;;;5019229;28;20106;-85
2022/04/10 08:51:59;;;;;;;9.85;2.10;;;7.30;99.90;;;;;;5018668;28;20046;-85
2022/04/10 08:54:25;;;;;;;;;;;7.40;99.90;;;;;;5007103;28;20547;-86
2022/04/10 08:56:50;;;;;;;8.35;1.90;;;7.40;99.90;;;;;;5004759;28;19932;-85
2022/04/10 08:59:20;;;;;;;8.88;2.40;;;7.40;99.90;;;;;;5004529;28;20042;-85
2022/04/10 09:01:52;;;;;;;11.75;2.65;;;7.30;99.90;;;;;;5006232;28;20102;-85
2022/04/10 09:04:18;;;;;;;8.35;2.15;;;7.20;99.90;;;;;;5008865;28;20091;-85
2022/04/10 09:06:59;;;;;;;10.10;2.20;;;7.20;99.90;;;;;;5006651;28;20396;-85
2022/04/10 09:09:26;;;;;;;10.48;2.38;;;7.20;99.90;;;;;;5004541;28;20091;-85
2022/04/10 09:11:55;;;;;;;9.32;2.10;;;7.20;99.90;;;;;;5005114;28;20095;-84
2022/04/10 09:14:22;;;;;;;12.25;2.45;;;7.30;99.90;;;;;;5005840;28;20073;-85
2022/04/10 09:17:17;;;;;;;8.82;2.22;;;7.40;99.90;;;;;;5009062;28;20042;-85
2022/04/10 09:19:47;;;;;;;9.68;2.08;;;7.50;99.90;;;;;;5003004;28;20045;-85
2022/04/10 09:22:37;;;;;;;7.32;1.92;;;7.60;99.90;;;;;;5007898;28;20037;-85
2022/04/10 09:25:13;;;;;;;7.97;1.75;;;7.80;99.90;;;;;;4985878;28;20042;-85
2022/04/10 09:27:44;;;;;;;7.55;1.92;;;7.90;99.90;;;;;;5105364;28;20046;-78
2022/04/10 09:30:13;;;;;;;7.07;2.17;;;8.00;99.90;;;;;;5006095;28;20034;-80
2022/04/10 09:32:51;;;;;;;6.88;1.80;;;8.10;99.90;;;;;;5003520;28;20077;-77
2022/04/10 09:35:22;;;;;;;10.60;2.17;;;8.10;99.90;;;;;;5004674;28;20054;-76
2022/04/10 09:37:53;;;;;;;10.00;2.13;;;8.30;99.90;;;;;;5004521;28;20057;-76
2022/04/10 09:40:39;;;;;;;9.68;2.47;;;8.40;99.90;;;;;;5004362;28;20062;-76
2022/04/10 09:43:11;;;;;;;9.40;1.90;;;8.30;99.90;;;;;;5005108;28;20408;-75
2022/04/10 09:45:43;;;;;;;8.38;1.98;;;8.00;99.90;;;;;;5004196;28;20092;-76
2022/04/10 09:48:27;;;;;;;7.28;1.75;;;7.70;99.90;;;;;;5015795;28;20042;-73
2022/04/10 09:50:58;;;;;;;6.53;1.80;;;7.50;99.90;;;;;;5001725;28;20046;-82
2022/04/10 09:53:24;;;;;;;7.78;2.40;;;7.40;99.90;;;;;;5108425;27;20061;-80
2022/04/10 09:55:55;;;;;;;5.65;2.13;;;7.50;99.90;;;;;;5005348;28;20083;-83
2022/04/10 09:58:21;;;;;;;7.13;2.30;;;7.60;99.90;;;;;;5004404;28;20099;-82
2022/04/10 10:00:49;;;;;;;9.47;2.07;;;7.70;99.90;;;;;;5003266;28;20075;-79
2022/04/10 10:03:16;;;;;;;8.68;2.40;;;7.80;99.90;;;;;;5005478;28;20293;-78
2022/04/10 10:05:43;;;;;;;10.45;2.88;;;7.90;99.90;;;;;;5008121;28;20034;-80
2022/04/10 10:08:09;;;;;;;10.85;2.80;;;8.20;99.90;;;;;;5012056;28;20057;-81
2022/04/10 10:10:36;;;;;;;8.77;2.53;;;8.30;99.90;;;;;;5011902;28;20042;-84
2022/04/10 10:13:05;;;;;;;10.63;2.75;;;8.30;99.90;;;;;;5010897;28;20046;-82
2022/04/10 10:15:32;;;;;;;9.93;2.33;;;8.30;99.90;;;;;;5007452;28;20046;-79
2022/04/10 10:18:01;;;;;;;8.27;2.30;;;8.30;99.90;;;;;;5005298;28;20070;-80
2022/04/10 10:20:28;;;;;;;10.60;2.40;;;8.40;99.90;;;;;;5003346;28;20487;-81
2022/04/10 10:22:54;;;;;;;7.50;2.00;;;8.50;99.90;;;;;;5004931;28;20054;-80
2022/04/10 10:25:41;;;;;;;10.43;2.40;;;8.50;99.90;;;;;;5005317;28;20038;-73
2022/04/10 10:28:48;;;;;;;9.25;1.80;;;8.60;99.90;;;;;;5001027;28;20126;-78
2022/04/10 10:31:25;;;;;;;9.40;1.90;;;8.60;97.90;;;;;;5006991;28;20056;-79
2022/04/10 10:34:03;;;;;;;8.27;1.95;;;8.70;99.90;;;;;;5008135;28;20050;-76
2022/04/10 10:36:29;;;;;;;;;;;8.80;96.40;;;;;;5007234;28;20120;-80
2022/04/10 10:38:56;;;;;;;8.07;1.92;;;8.90;92.00;;;;;;5008422;28;20353;-77
2022/04/10 10:41:22;;;;;;;;;;;8.90;96.20;;;;;;5008270;28;20084;-77
2022/04/10 10:43:49;;;;;;;10.70;2.03;;;8.70;78.00;;;;;;5109821;27;19921;-80
2022/04/10 10:46:21;;;;;;;8.60;1.95;;;8.70;94.00;;;;;;5006480;28;20049;-86
2022/04/10 10:48:47;;;;;;;9.30;1.95;;;8.70;92.10;;;;;;5004511;28;20057;-85
2022/04/10 10:51:13;;;;;;;5.38;1.48;;;8.80;92.80;;;;;;5007760;28;20137;-78
2022/04/10 10:53:46;;;;;;;5.78;1.50;;;8.90;88.30;;;;;;5006695;28;20129;-78
2022/04/10 10:56:13;;;;;;;8.55;1.90;;;9.10;83.70;;;;;;5006395;28;20052;-79
2022/04/10 10:58:41;;;;;;;6.97;1.45;;;9.20;82.00;;;;;;5008255;28;20046;-77
2022/04/10 11:01:08;;;;;;;7.63;1.70;;;9.20;76.60;;;;;;5007441;28;20049;-81
2022/04/10 11:04:03;;;;;;;6.40;1.80;;;9.20;76.80;;;;;;5018536;28;20087;-84
2022/04/10 11:06:44;;;;;;;7.20;1.80;;;9.10;87.10;;;;;;5015519;28;20144;-77
2022/04/10 11:09:30;;;;;;;12.85;2.17;;;8.90;79.60;;;;;;5006353;28;20053;-79
2022/04/10 11:11:58;;;;;;;6.72;1.58;;;8.70;82.70;;;;;;5007390;28;20038;-83
2022/04/10 11:14:39;;;;;;;8.85;1.92;;;8.60;89.30;;;;;;5010065;28;20042;-84
2022/04/10 11:17:14;;;;;;;9.55;2.13;;;8.70;90.90;;;;;;5016512;28;20075;-84
2022/04/10 11:19:44;;;;;;;7.88;1.70;;;8.70;92.30;;;;;;5005760;28;20473;-84
2022/04/10 11:22:13;;;;;;;9.70;1.95;;;8.90;93.90;;;;;;5018967;28;20615;-85
2022/04/10 11:24:39;;;;;;;10.60;2.03;;;9.00;90.10;;;;;;5005373;28;20058;-83
2022/04/10 11:27:05;;;;;;;6.75;1.73;;;9.20;89.90;;;;;;5015864;28;20053;-83
2022/04/10 11:29:33;;;;;;;10.55;2.35;;;9.40;86.30;;;;;;5009677;28;20056;-84
2022/04/10 11:32:04;;;;;;;8.82;2.17;;;9.30;84.80;;;;;;5006268;28;20054;-84
2022/04/10 11:34:30;;;;;;;8.80;1.83;;;9.20;80.10;;;;;;4987571;28;20062;-82
2022/04/10 11:36:59;;;;;;;6.30;1.60;;;9.20;88.20;;;;;;5000670;28;20042;-81
2022/04/10 11:39:26;;;;;;;7.63;2.13;;;9.30;86.00;;;;;;5005260;28;20125;-82
2022/04/10 11:41:53;;;;;;;6.28;1.70;;;9.40;84.10;;;;;;5004291;28;20049;-85
2022/04/10 11:44:23;;;;;;;4.53;1.30;;;9.50;84.00;;;;;;5008400;28;20042;-83
2022/04/10 11:46:49;;;;;;;4.93;1.48;;;9.50;80.60;;;;;;5006832;28;20511;-84
2022/04/10 11:49:18;;;;;;;11.43;2.10;;;9.40;80.60;;;;;;5004980;28;20038;-84
2022/04/10 11:51:54;;;;;;;6.78;1.63;;;9.40;81.10;;;;;;5006787;28;20065;-83
2022/04/10 11:54:31;;;;;;;7.13;1.73;;;9.50;86.90;;;;;;5005902;28;20667;-82
2022/04/10 11:57:00;;;;;;;8.63;2.40;;;9.50;85.20;;;;;;5003026;28;20526;-85
2022/04/10 11:59:26;;;;;;;10.68;2.47;;;9.60;91.70;;;;;;5003356;28;20072;-79
2022/04/10 12:01:53;;;;;;;8.68;2.30;;;9.70;87.30;;;;;;5006832;28;20045;-80
2022/04/10 12:04:20;;;;;;;10.50;1.92;;;9.90;90.60;;;;;;5005534;28;20863;-84
2022/04/10 12:06:46;;;;;;;5.47;1.65;;;10.00;91.80;;;;;;5004313;28;20042;-84
2022/04/10 12:09:14;;;;;;;5.90;1.42;;;10.20;90.60;;;;;;5008070;28;20107;-87
2022/04/10 12:11:40;;;;;;;;;;;10.40;89.60;;;;;;5002407;28;20103;-85
2022/04/10 12:14:38;;;;;;;5.60;1.40;;;10.40;79.40;;;;;;4990462;28;20568;-88
2022/04/10 12:17:10;;;;;;;7.40;1.48;;;10.30;67.90;;;;;;5022105;28;20058;-87
2022/04/10 12:19:36;;;;;;;5.30;1.58;;;10.20;74.80;;;;;;4992870;28;20042;-86
2022/04/10 12:22:07;;;;;;;7.45;1.58;;;10.20;72.30;;;;;;4992202;28;20054;-86
2022/04/10 12:24:34;;;;;;;7.78;1.70;;;10.20;70.90;;;;;;4994306;28;20042;-83
2022/04/10 12:27:04;;;;;;;6.97;1.55;;;10.10;72.40;;;;;;4990230;28;20042;-85
2022/04/10 12:29:31;;;;;;;5.65;1.63;;;10.00;71.10;;;;;;4988447;28;20046;-84
2022/04/10 12:31:58;;;;;;;5.72;1.50;;;10.00;70.20;;;;;;5005530;28;20041;-82
2022/04/10 12:34:23;;;;;;;6.07;1.65;;;9.90;69.70;;;;;;5008379;28;20065;-81
2022/04/10 12:36:50;;;;;;;5.03;1.80;;;9.90;71.70;;;;;;5006619;28;20489;-79
2022/04/10 12:39:27;;;;;;;7.32;2.10;;;9.90;72.80;;;;;;5005049;28;20041;-80
2022/04/10 12:42:19;;;;;;;7.78;2.10;;;9.80;69.80;;;;;;5004241;28;20136;-80
2022/04/10 12:44:55;;;;;;;4.63;1.35;;;9.90;74.00;;;;;;5006441;28;20045;-82
2022/04/10 12:47:47;;;;;;;4.65;1.20;;;10.10;70.70;;;;;;5004473;28;20174;-77
2022/04/10 12:50:15;;;;;;;6.60;1.60;;;10.20;67.50;;;;;;5003141;28;20049;-78
2022/04/10 12:52:42;;;;;;;6.47;1.55;;;10.30;69.70;;;;;;5004120;28;20064;-76
2022/04/10 12:55:36;;;;;;;7.18;1.67;;;10.40;70.70;;;;;;5015901;28;20037;-82
2022/04/10 12:58:04;;;;;;;7.40;1.45;;;10.50;68.20;;;;;;5005693;28;20142;-77
2022/04/10 13:00:30;;;;;;;6.65;1.77;;;10.60;69.00;;;;;;5007696;28;20087;-81
2022/04/10 13:02:56;;;;;;;7.00;1.60;;;10.60;67.10;;;;;;5001789;28;20042;-86